Correll Park, North Carolina
Current Conditions -  °F | °C
As of 11:15 AM on Monday 22 Dec 2014 (Local Time) from KRUQ Reporting Station
Haze Haze  
Wind Chill: 30°   Ceiling: 300
Heat Index: 36°   Visibility: 2mi
Dew Point: 35°   Wind: 7mph
Humidity: 98%   Direction: 20°NNE
Pressure: 30.14"   Gusts: NA
Location:  35.6881°N, 80.5385°W
Report Text: KRUQ 221615Z AUTO 02006KT 2SM BR OVC003 02/02 A3014 RMK AO2 T00200017
Loading
Personal Weather Stations






























Interactive Weather Map New forecast layout! Learn more

10-Day Weather Forecast

Advertisements
Track Severe Weather on mobile